sensor_id;sensor_type;location;lat;lon;timestamp;P1;durP1;ratioP1;P2;durP2;ratioP2
59074;SDS011;44860;53.020;6.738;2022-09-09T00:03:53;13.45;;;10.05;;
59074;SDS011;44860;53.020;6.738;2022-09-09T00:06:32;14.18;;;9.90;;
59074;SDS011;44860;53.020;6.738;2022-09-09T00:09:10;12.35;;;9.98;;
59074;SDS011;44860;53.020;6.738;2022-09-09T00:15:11;13.43;;;10.60;;
59074;SDS011;44860;53.020;6.738;2022-09-09T00:17:36;12.13;;;9.65;;
59074;SDS011;44860;53.020;6.738;2022-09-09T00:20:12;13.98;;;9.93;;
59074;SDS011;44860;53.020;6.738;2022-09-09T00:22:48;13.48;;;9.52;;
59074;SDS011;44860;53.020;6.738;2022-09-09T00:25:26;10.40;;;9.30;;
59074;SDS011;44860;53.020;6.738;2022-09-09T00:27:59;12.60;;;8.90;;
59074;SDS011;44860;53.020;6.738;2022-09-09T00:30:26;12.77;;;9.15;;
59074;SDS011;44860;53.020;6.738;2022-09-09T00:33:00;15.68;;;9.90;;
59074;SDS011;44860;53.020;6.738;2022-09-09T00:35:32;13.60;;;9.15;;
59074;SDS011;44860;53.020;6.738;2022-09-09T00:38:09;12.27;;;9.48;;
59074;SDS011;44860;53.020;6.738;2022-09-09T00:40:46;13.68;;;8.93;;
59074;SDS011;44860;53.020;6.738;2022-09-09T00:43:25;14.18;;;8.82;;
59074;SDS011;44860;53.020;6.738;2022-09-09T00:57:57;11.80;;;8.82;;
59074;SDS011;44860;53.020;6.738;2022-09-09T01:08:06;12.40;;;8.70;;
59074;SDS011;44860;53.020;6.738;2022-09-09T01:10:50;11.45;;;8.15;;
59074;SDS011;44860;53.020;6.738;2022-09-09T01:13:25;13.85;;;8.18;;
59074;SDS011;44860;53.020;6.738;2022-09-09T01:15:55;12.85;;;8.13;;
59074;SDS011;44860;53.020;6.738;2022-09-09T01:18:26;14.40;;;8.13;;
59074;SDS011;44860;53.020;6.738;2022-09-09T01:26:18;11.27;;;7.80;;
59074;SDS011;44860;53.020;6.738;2022-09-09T01:29:08;11.25;;;7.78;;
59074;SDS011;44860;53.020;6.738;2022-09-09T01:31:37;12.38;;;7.65;;
59074;SDS011;44860;53.020;6.738;2022-09-09T01:34:14;13.73;;;9.05;;
59074;SDS011;44860;53.020;6.738;2022-09-09T01:36:48;11.40;;;8.30;;
59074;SDS011;44860;53.020;6.738;2022-09-09T01:39:16;11.38;;;8.60;;
59074;SDS011;44860;53.020;6.738;2022-09-09T01:41:42;13.38;;;8.40;;
59074;SDS011;44860;53.020;6.738;2022-09-09T01:44:07;13.23;;;8.00;;
59074;SDS011;44860;53.020;6.738;2022-09-09T01:46:34;11.77;;;7.95;;
59074;SDS011;44860;53.020;6.738;2022-09-09T01:49:00;11.60;;;8.70;;
59074;SDS011;44860;53.020;6.738;2022-09-09T01:51:29;13.20;;;8.90;;
59074;SDS011;44860;53.020;6.738;2022-09-09T01:53:55;12.35;;;8.60;;
59074;SDS011;44860;53.020;6.738;2022-09-09T02:01:40;12.95;;;8.65;;
59074;SDS011;44860;53.020;6.738;2022-09-09T02:06:48;15.75;;;8.85;;
59074;SDS011;44860;53.020;6.738;2022-09-09T02:09:18;12.70;;;8.95;;
59074;SDS011;44860;53.020;6.738;2022-09-09T02:11:47;10.88;;;8.50;;
59074;SDS011;44860;53.020;6.738;2022-09-09T02:14:25;11.20;;;8.60;;
59074;SDS011;44860;53.020;6.738;2022-09-09T02:17:00;13.48;;;8.50;;
59074;SDS011;44860;53.020;6.738;2022-09-09T02:19:32;13.52;;;9.18;;
59074;SDS011;44860;53.020;6.738;2022-09-09T02:22:01;13.10;;;8.60;;
59074;SDS011;44860;53.020;6.738;2022-09-09T02:24:32;14.82;;;8.63;;
59074;SDS011;44860;53.020;6.738;2022-09-09T02:27:01;14.27;;;8.43;;
59074;SDS011;44860;53.020;6.738;2022-09-09T02:29:35;11.20;;;8.00;;
59074;SDS011;44860;53.020;6.738;2022-09-09T02:32:06;10.63;;;8.45;;
59074;SDS011;44860;53.020;6.738;2022-09-09T02:34:42;16.15;;;7.85;;
59074;SDS011;44860;53.020;6.738;2022-09-09T02:37:12;14.40;;;9.40;;
59074;SDS011;44860;53.020;6.738;2022-09-09T02:39:42;10.95;;;8.38;;
59074;SDS011;44860;53.020;6.738;2022-09-09T02:42:08;16.92;;;9.20;;
59074;SDS011;44860;53.020;6.738;2022-09-09T02:44:34;13.00;;;9.30;;
59074;SDS011;44860;53.020;6.738;2022-09-09T02:50:02;11.70;;;8.35;;
59074;SDS011;44860;53.020;6.738;2022-09-09T02:55:30;13.50;;;8.05;;
59074;SDS011;44860;53.020;6.738;2022-09-09T02:58:03;10.00;;;7.47;;
59074;SDS011;44860;53.020;6.738;2022-09-09T03:00:32;10.98;;;7.03;;
59074;SDS011;44860;53.020;6.738;2022-09-09T03:03:00;11.60;;;7.10;;
59074;SDS011;44860;53.020;6.738;2022-09-09T03:05:28;12.95;;;7.95;;
59074;SDS011;44860;53.020;6.738;2022-09-09T03:07:53;12.65;;;7.20;;
59074;SDS011;44860;53.020;6.738;2022-09-09T03:10:19;10.88;;;6.68;;
59074;SDS011;44860;53.020;6.738;2022-09-09T03:12:45;11.10;;;6.72;;
59074;SDS011;44860;53.020;6.738;2022-09-09T03:15:10;12.10;;;6.57;;
59074;SDS011;44860;53.020;6.738;2022-09-09T03:17:36;11.75;;;6.20;;
59074;SDS011;44860;53.020;6.738;2022-09-09T03:20:03;12.07;;;6.78;;
59074;SDS011;44860;53.020;6.738;2022-09-09T03:22:29;12.75;;;6.65;;
59074;SDS011;44860;53.020;6.738;2022-09-09T03:24:54;11.15;;;6.68;;
59074;SDS011;44860;53.020;6.738;2022-09-09T03:27:20;10.32;;;6.25;;
59074;SDS011;44860;53.020;6.738;2022-09-09T03:29:46;10.10;;;5.95;;
59074;SDS011;44860;53.020;6.738;2022-09-09T03:32:12;12.48;;;6.40;;
59074;SDS011;44860;53.020;6.738;2022-09-09T03:34:38;9.95;;;5.65;;
59074;SDS011;44860;53.020;6.738;2022-09-09T03:37:07;9.30;;;6.13;;
59074;SDS011;44860;53.020;6.738;2022-09-09T03:39:32;9.25;;;6.15;;
59074;SDS011;44860;53.020;6.738;2022-09-09T03:41:58;13.23;;;6.35;;
59074;SDS011;44860;53.020;6.738;2022-09-09T03:44:24;9.25;;;6.25;;
59074;SDS011;44860;53.020;6.738;2022-09-09T03:46:49;9.75;;;6.75;;
59074;SDS011;44860;53.020;6.738;2022-09-09T03:49:15;9.57;;;6.28;;
59074;SDS011;44860;53.020;6.738;2022-09-09T03:51:41;9.82;;;6.15;;
59074;SDS011;44860;53.020;6.738;2022-09-09T03:54:07;9.18;;;6.25;;
59074;SDS011;44860;53.020;6.738;2022-09-09T03:56:35;8.52;;;6.53;;
59074;SDS011;44860;53.020;6.738;2022-09-09T03:59:01;8.95;;;6.53;;
59074;SDS011;44860;53.020;6.738;2022-09-09T04:01:27;9.57;;;6.13;;
59074;SDS011;44860;53.020;6.738;2022-09-09T04:03:53;8.88;;;6.68;;
59074;SDS011;44860;53.020;6.738;2022-09-09T04:06:23;11.65;;;7.22;;
59074;SDS011;44860;53.020;6.738;2022-09-09T04:08:49;10.25;;;6.32;;
59074;SDS011;44860;53.020;6.738;2022-09-09T04:11:15;7.70;;;5.82;;
59074;SDS011;44860;53.020;6.738;2022-09-09T04:13:41;9.38;;;5.35;;
59074;SDS011;44860;53.020;6.738;2022-09-09T04:16:07;8.63;;;5.38;;
59074;SDS011;44860;53.020;6.738;2022-09-09T04:18:35;7.50;;;5.20;;
59074;SDS011;44860;53.020;6.738;2022-09-09T04:21:00;9.40;;;5.70;;
59074;SDS011;44860;53.020;6.738;2022-09-09T04:23:28;6.97;;;5.53;;
59074;SDS011;44860;53.020;6.738;2022-09-09T04:25:54;9.48;;;6.13;;
59074;SDS011;44860;53.020;6.738;2022-09-09T04:28:22;9.73;;;6.00;;
59074;SDS011;44860;53.020;6.738;2022-09-09T04:30:49;12.35;;;7.35;;
59074;SDS011;44860;53.020;6.738;2022-09-09T04:33:15;10.27;;;7.28;;
59074;SDS011;44860;53.020;6.738;2022-09-09T04:35:46;9.82;;;7.30;;
59074;SDS011;44860;53.020;6.738;2022-09-09T04:38:13;10.00;;;7.82;;
59074;SDS011;44860;53.020;6.738;2022-09-09T04:40:42;10.23;;;7.20;;
59074;SDS011;44860;53.020;6.738;2022-09-09T04:43:08;12.02;;;7.50;;
59074;SDS011;44860;53.020;6.738;2022-09-09T04:45:34;10.57;;;7.70;;
59074;SDS011;44860;53.020;6.738;2022-09-09T04:48:00;11.68;;;8.38;;
59074;SDS011;44860;53.020;6.738;2022-09-09T04:50:27;12.70;;;8.45;;
59074;SDS011;44860;53.020;6.738;2022-09-09T04:52:53;14.20;;;9.00;;
59074;SDS011;44860;53.020;6.738;2022-09-09T04:55:19;11.57;;;8.68;;
59074;SDS011;44860;53.020;6.738;2022-09-09T04:57:45;12.98;;;9.20;;
59074;SDS011;44860;53.020;6.738;2022-09-09T05:00:11;12.80;;;9.48;;
59074;SDS011;44860;53.020;6.738;2022-09-09T05:02:38;13.05;;;10.02;;
59074;SDS011;44860;53.020;6.738;2022-09-09T05:05:05;15.18;;;9.82;;
59074;SDS011;44860;53.020;6.738;2022-09-09T05:07:31;13.90;;;10.30;;
59074;SDS011;44860;53.020;6.738;2022-09-09T05:09:57;14.20;;;10.65;;
59074;SDS011;44860;53.020;6.738;2022-09-09T05:12:23;12.45;;;10.05;;
59074;SDS011;44860;53.020;6.738;2022-09-09T05:14:50;12.20;;;10.00;;
59074;SDS011;44860;53.020;6.738;2022-09-09T05:17:17;13.43;;;9.13;;
59074;SDS011;44860;53.020;6.738;2022-09-09T05:19:43;12.38;;;9.50;;
59074;SDS011;44860;53.020;6.738;2022-09-09T05:22:09;13.85;;;9.90;;
59074;SDS011;44860;53.020;6.738;2022-09-09T05:24:36;11.57;;;8.98;;
59074;SDS011;44860;53.020;6.738;2022-09-09T05:27:01;12.85;;;9.13;;
59074;SDS011;44860;53.020;6.738;2022-09-09T05:29:28;12.75;;;8.77;;
59074;SDS011;44860;53.020;6.738;2022-09-09T05:31:53;10.98;;;8.70;;
59074;SDS011;44860;53.020;6.738;2022-09-09T05:34:19;14.20;;;8.50;;
59074;SDS011;44860;53.020;6.738;2022-09-09T05:36:45;11.32;;;7.75;;
59074;SDS011;44860;53.020;6.738;2022-09-09T05:39:12;11.15;;;8.65;;
59074;SDS011;44860;53.020;6.738;2022-09-09T05:41:38;11.35;;;8.52;;
59074;SDS011;44860;53.020;6.738;2022-09-09T05:44:03;11.52;;;8.50;;
59074;SDS011;44860;53.020;6.738;2022-09-09T05:46:30;13.48;;;8.57;;
59074;SDS011;44860;53.020;6.738;2022-09-09T05:48:55;11.93;;;8.45;;
59074;SDS011;44860;53.020;6.738;2022-09-09T05:51:25;12.38;;;8.32;;
59074;SDS011;44860;53.020;6.738;2022-09-09T05:53:53;11.15;;;7.88;;
59074;SDS011;44860;53.020;6.738;2022-09-09T05:56:21;10.32;;;7.68;;
59074;SDS011;44860;53.020;6.738;2022-09-09T05:58:49;12.30;;;9.05;;
59074;SDS011;44860;53.020;6.738;2022-09-09T06:01:16;10.82;;;8.75;;
59074;SDS011;44860;53.020;6.738;2022-09-09T06:03:44;11.48;;;8.23;;
59074;SDS011;44860;53.020;6.738;2022-09-09T06:06:12;11.60;;;9.10;;
59074;SDS011;44860;53.020;6.738;2022-09-09T06:08:46;14.15;;;9.55;;
59074;SDS011;44860;53.020;6.738;2022-09-09T06:11:18;14.00;;;9.75;;
59074;SDS011;44860;53.020;6.738;2022-09-09T06:13:48;12.82;;;9.60;;
59074;SDS011;44860;53.020;6.738;2022-09-09T06:16:18;12.45;;;9.52;;
59074;SDS011;44860;53.020;6.738;2022-09-09T06:18:48;15.80;;;10.95;;
59074;SDS011;44860;53.020;6.738;2022-09-09T06:21:21;12.80;;;9.20;;
59074;SDS011;44860;53.020;6.738;2022-09-09T06:23:55;11.77;;;8.90;;
59074;SDS011;44860;53.020;6.738;2022-09-09T06:28:49;14.43;;;9.75;;
59074;SDS011;44860;53.020;6.738;2022-09-09T06:31:17;12.15;;;9.70;;
59074;SDS011;44860;53.020;6.738;2022-09-09T06:33:47;13.40;;;9.57;;
59074;SDS011;44860;53.020;6.738;2022-09-09T06:36:21;15.20;;;9.57;;
59074;SDS011;44860;53.020;6.738;2022-09-09T06:38:46;12.47;;;9.57;;
59074;SDS011;44860;53.020;6.738;2022-09-09T06:41:13;17.30;;;9.90;;
59074;SDS011;44860;53.020;6.738;2022-09-09T06:43:40;14.20;;;10.23;;
59074;SDS011;44860;53.020;6.738;2022-09-09T06:46:08;13.15;;;9.65;;
59074;SDS011;44860;53.020;6.738;2022-09-09T06:48:36;12.30;;;9.63;;
59074;SDS011;44860;53.020;6.738;2022-09-09T06:51:11;13.75;;;9.77;;
59074;SDS011;44860;53.020;6.738;2022-09-09T06:53:39;13.10;;;9.30;;
59074;SDS011;44860;53.020;6.738;2022-09-09T06:58:41;14.70;;;9.30;;
59074;SDS011;44860;53.020;6.738;2022-09-09T07:01:09;13.88;;;9.35;;
59074;SDS011;44860;53.020;6.738;2022-09-09T07:03:37;11.27;;;9.50;;
59074;SDS011;44860;53.020;6.738;2022-09-09T07:06:04;12.52;;;9.05;;
59074;SDS011;44860;53.020;6.738;2022-09-09T07:08:30;13.93;;;9.40;;
59074;SDS011;44860;53.020;6.738;2022-09-09T07:11:03;12.23;;;8.63;;
59074;SDS011;44860;53.020;6.738;2022-09-09T07:13:30;11.82;;;9.00;;
59074;SDS011;44860;53.020;6.738;2022-09-09T07:16:02;12.25;;;8.55;;
59074;SDS011;44860;53.020;6.738;2022-09-09T07:18:33;13.68;;;8.65;;
59074;SDS011;44860;53.020;6.738;2022-09-09T07:20:59;12.73;;;8.65;;
59074;SDS011;44860;53.020;6.738;2022-09-09T07:23:27;12.57;;;8.15;;
59074;SDS011;44860;53.020;6.738;2022-09-09T07:25:53;13.43;;;8.68;;
59074;SDS011;44860;53.020;6.738;2022-09-09T07:28:19;11.75;;;7.95;;
59074;SDS011;44860;53.020;6.738;2022-09-09T07:30:52;12.68;;;8.00;;
59074;SDS011;44860;53.020;6.738;2022-09-09T07:33:19;12.02;;;7.80;;
59074;SDS011;44860;53.020;6.738;2022-09-09T07:35:45;13.18;;;7.32;;
59074;SDS011;44860;53.020;6.738;2022-09-09T07:38:11;10.02;;;7.40;;
59074;SDS011;44860;53.020;6.738;2022-09-09T07:40:36;12.02;;;7.07;;
59074;SDS011;44860;53.020;6.738;2022-09-09T07:43:02;11.55;;;7.10;;
59074;SDS011;44860;53.020;6.738;2022-09-09T07:45:28;9.40;;;7.10;;
59074;SDS011;44860;53.020;6.738;2022-09-09T07:47:55;11.70;;;8.05;;
59074;SDS011;44860;53.020;6.738;2022-09-09T07:50:22;11.00;;;7.65;;
59074;SDS011;44860;53.020;6.738;2022-09-09T07:52:48;10.85;;;7.20;;
59074;SDS011;44860;53.020;6.738;2022-09-09T07:55:15;13.93;;;7.13;;
59074;SDS011;44860;53.020;6.738;2022-09-09T07:57:41;11.18;;;6.65;;
59074;SDS011;44860;53.020;6.738;2022-09-09T08:00:06;11.98;;;7.25;;
59074;SDS011;44860;53.020;6.738;2022-09-09T08:02:33;9.90;;;6.80;;
59074;SDS011;44860;53.020;6.738;2022-09-09T08:04:58;12.85;;;7.65;;
59074;SDS011;44860;53.020;6.738;2022-09-09T08:07:24;10.75;;;7.43;;
59074;SDS011;44860;53.020;6.738;2022-09-09T08:09:49;11.73;;;7.38;;
59074;SDS011;44860;53.020;6.738;2022-09-09T08:12:15;11.82;;;7.28;;
59074;SDS011;44860;53.020;6.738;2022-09-09T08:14:41;12.52;;;7.30;;
59074;SDS011;44860;53.020;6.738;2022-09-09T08:17:07;12.82;;;7.00;;
59074;SDS011;44860;53.020;6.738;2022-09-09T08:19:32;12.25;;;7.18;;
59074;SDS011;44860;53.020;6.738;2022-09-09T08:22:00;12.35;;;6.85;;
59074;SDS011;44860;53.020;6.738;2022-09-09T08:24:28;12.57;;;6.90;;
59074;SDS011;44860;53.020;6.738;2022-09-09T08:26:54;11.75;;;7.32;;
59074;SDS011;44860;53.020;6.738;2022-09-09T08:29:21;11.98;;;7.50;;
59074;SDS011;44860;53.020;6.738;2022-09-09T08:34:14;9.43;;;6.38;;
59074;SDS011;44860;53.020;6.738;2022-09-09T08:36:41;13.95;;;6.63;;
59074;SDS011;44860;53.020;6.738;2022-09-09T08:39:08;12.00;;;6.70;;
59074;SDS011;44860;53.020;6.738;2022-09-09T08:57:58;9.77;;;5.78;;
59074;SDS011;44860;53.020;6.738;2022-09-09T09:00:34;12.23;;;6.30;;
59074;SDS011;44860;53.020;6.738;2022-09-09T09:03:25;10.00;;;5.33;;
59074;SDS011;44860;53.020;6.738;2022-09-09T09:08:48;10.15;;;5.50;;
59074;SDS011;44860;53.020;6.738;2022-09-09T09:11:16;11.60;;;5.78;;
59074;SDS011;44860;53.020;6.738;2022-09-09T09:13:44;13.60;;;5.60;;
59074;SDS011;44860;53.020;6.738;2022-09-09T09:16:19;13.20;;;5.68;;
59074;SDS011;44860;53.020;6.738;2022-09-09T09:18:54;11.45;;;5.45;;
59074;SDS011;44860;53.020;6.738;2022-09-09T09:27:00;8.63;;;4.72;;
59074;SDS011;44860;53.020;6.738;2022-09-09T09:29:40;11.35;;;5.07;;
59074;SDS011;44860;53.020;6.738;2022-09-09T09:32:10;9.52;;;5.38;;
59074;SDS011;44860;53.020;6.738;2022-09-09T09:34:38;10.38;;;4.93;;
59074;SDS011;44860;53.020;6.738;2022-09-09T09:37:17;9.57;;;5.10;;
59074;SDS011;44860;53.020;6.738;2022-09-09T09:39:52;14.93;;;4.90;;
59074;SDS011;44860;53.020;6.738;2022-09-09T09:42:18;9.10;;;4.35;;
59074;SDS011;44860;53.020;6.738;2022-09-09T09:44:44;10.93;;;4.20;;
59074;SDS011;44860;53.020;6.738;2022-09-09T09:47:20;10.93;;;3.75;;
59074;SDS011;44860;53.020;6.738;2022-09-09T09:49:53;9.23;;;4.00;;
59074;SDS011;44860;53.020;6.738;2022-09-09T09:52:27;12.10;;;3.88;;
59074;SDS011;44860;53.020;6.738;2022-09-09T09:54:54;8.98;;;3.03;;
59074;SDS011;44860;53.020;6.738;2022-09-09T09:57:31;11.73;;;3.75;;
59074;SDS011;44860;53.020;6.738;2022-09-09T10:00:02;12.52;;;3.75;;
59074;SDS011;44860;53.020;6.738;2022-09-09T10:02:39;9.38;;;4.13;;
59074;SDS011;44860;53.020;6.738;2022-09-09T10:05:27;9.55;;;4.18;;
59074;SDS011;44860;53.020;6.738;2022-09-09T10:08:00;10.32;;;4.00;;
59074;SDS011;44860;53.020;6.738;2022-09-09T10:14:03;9.98;;;3.10;;
59074;SDS011;44860;53.020;6.738;2022-09-09T10:16:53;8.27;;;3.10;;
59074;SDS011;44860;53.020;6.738;2022-09-09T10:19:39;8.70;;;2.70;;
59074;SDS011;44860;53.020;6.738;2022-09-09T10:27:33;9.15;;;2.47;;
59074;SDS011;44860;53.020;6.738;2022-09-09T10:30:18;9.90;;;2.50;;
59074;SDS011;44860;53.020;6.738;2022-09-09T10:32:53;9.68;;;3.00;;
59074;SDS011;44860;53.020;6.738;2022-09-09T10:38:40;11.38;;;2.65;;
59074;SDS011;44860;53.020;6.738;2022-09-09T10:41:20;9.88;;;2.63;;
59074;SDS011;44860;53.020;6.738;2022-09-09T10:47:05;7.93;;;2.40;;
59074;SDS011;44860;53.020;6.738;2022-09-09T10:54:55;7.20;;;2.22;;
59074;SDS011;44860;53.020;6.738;2022-09-09T10:57:27;6.85;;;2.05;;
59074;SDS011;44860;53.020;6.738;2022-09-09T11:00:15;6.30;;;2.33;;
59074;SDS011;44860;53.020;6.738;2022-09-09T11:02:43;7.43;;;2.47;;
59074;SDS011;44860;53.020;6.738;2022-09-09T11:05:19;10.68;;;2.42;;
59074;SDS011;44860;53.020;6.738;2022-09-09T11:08:18;8.35;;;2.30;;
59074;SDS011;44860;53.020;6.738;2022-09-09T11:14:09;8.93;;;2.50;;
59074;SDS011;44860;53.020;6.738;2022-09-09T11:21:59;8.88;;;1.83;;
59074;SDS011;44860;53.020;6.738;2022-09-09T11:24:37;6.13;;;2.03;;
59074;SDS011;44860;53.020;6.738;2022-09-09T11:27:24;10.32;;;2.20;;
59074;SDS011;44860;53.020;6.738;2022-09-09T11:32:55;5.60;;;1.90;;
59074;SDS011;44860;53.020;6.738;2022-09-09T11:35:49;6.57;;;1.70;;
59074;SDS011;44860;53.020;6.738;2022-09-09T11:40:57;5.63;;;1.70;;
59074;SDS011;44860;53.020;6.738;2022-09-09T11:46:31;8.32;;;1.98;;
59074;SDS011;44860;53.020;6.738;2022-09-09T11:49:45;7.85;;;1.60;;
59074;SDS011;44860;53.020;6.738;2022-09-09T11:51:53;6.97;;;2.30;;
59074;SDS011;44860;53.020;6.738;2022-09-09T11:54:32;5.38;;;1.70;;
59074;SDS011;44860;53.020;6.738;2022-09-09T11:57:22;5.85;;;1.80;;
59074;SDS011;44860;53.020;6.738;2022-09-09T11:59:51;7.97;;;2.00;;
59074;SDS011;44860;53.020;6.738;2022-09-09T12:02:19;8.30;;;2.10;;
59074;SDS011;44860;53.020;6.738;2022-09-09T12:05:08;8.70;;;2.25;;
59074;SDS011;44860;53.020;6.738;2022-09-09T12:12:54;7.28;;;2.10;;
59074;SDS011;44860;53.020;6.738;2022-09-09T12:15:27;7.40;;;1.80;;
59074;SDS011;44860;53.020;6.738;2022-09-09T12:17:55;7.95;;;1.73;;
59074;SDS011;44860;53.020;6.738;2022-09-09T12:25:49;5.65;;;1.80;;
59074;SDS011;44860;53.020;6.738;2022-09-09T12:28:18;7.43;;;1.83;;
59074;SDS011;44860;53.020;6.738;2022-09-09T12:33:17;5.05;;;1.55;;
59074;SDS011;44860;53.020;6.738;2022-09-09T12:35:44;6.75;;;1.90;;
59074;SDS011;44860;53.020;6.738;2022-09-09T12:38:17;5.47;;;1.60;;
59074;SDS011;44860;53.020;6.738;2022-09-09T12:43:26;6.47;;;1.70;;
59074;SDS011;44860;53.020;6.738;2022-09-09T12:45:54;7.43;;;2.13;;
59074;SDS011;44860;53.020;6.738;2022-09-09T12:48:30;6.30;;;2.10;;
59074;SDS011;44860;53.020;6.738;2022-09-09T12:51:01;4.30;;;1.48;;
59074;SDS011;44860;53.020;6.738;2022-09-09T12:53:35;5.50;;;1.65;;
59074;SDS011;44860;53.020;6.738;2022-09-09T12:56:03;3.53;;;1.38;;
59074;SDS011;44860;53.020;6.738;2022-09-09T12:58:32;7.13;;;1.73;;
59074;SDS011;44860;53.020;6.738;2022-09-09T13:00:59;8.73;;;1.67;;
59074;SDS011;44860;53.020;6.738;2022-09-09T13:03:29;5.57;;;1.45;;
59074;SDS011;44860;53.020;6.738;2022-09-09T13:06:10;3.80;;;1.27;;
59074;SDS011;44860;53.020;6.738;2022-09-09T13:08:43;6.05;;;2.00;;
59074;SDS011;44860;53.020;6.738;2022-09-09T13:11:10;3.80;;;1.50;;
59074;SDS011;44860;53.020;6.738;2022-09-09T13:13:42;5.57;;;1.60;;
59074;SDS011;44860;53.020;6.738;2022-09-09T13:16:19;4.85;;;1.52;;
59074;SDS011;44860;53.020;6.738;2022-09-09T13:18:48;8.13;;;1.92;;
59074;SDS011;44860;53.020;6.738;2022-09-09T13:21:14;4.82;;;1.40;;
59074;SDS011;44860;53.020;6.738;2022-09-09T13:23:40;7.18;;;1.85;;
59074;SDS011;44860;53.020;6.738;2022-09-09T13:26:19;9.38;;;1.95;;
59074;SDS011;44860;53.020;6.738;2022-09-09T13:28:50;5.82;;;1.50;;
59074;SDS011;44860;53.020;6.738;2022-09-09T13:31:24;5.18;;;1.48;;
59074;SDS011;44860;53.020;6.738;2022-09-09T13:33:54;3.45;;;1.20;;
59074;SDS011;44860;53.020;6.738;2022-09-09T13:36:29;3.03;;;1.10;;
59074;SDS011;44860;53.020;6.738;2022-09-09T13:38:57;4.43;;;1.60;;
59074;SDS011;44860;53.020;6.738;2022-09-09T13:41:34;6.22;;;1.40;;
59074;SDS011;44860;53.020;6.738;2022-09-09T13:44:02;3.95;;;1.20;;
59074;SDS011;44860;53.020;6.738;2022-09-09T13:46:36;6.00;;;1.38;;
59074;SDS011;44860;53.020;6.738;2022-09-09T13:54:05;7.38;;;1.63;;
59074;SDS011;44860;53.020;6.738;2022-09-09T13:56:35;4.47;;;1.40;;
59074;SDS011;44860;53.020;6.738;2022-09-09T13:59:02;6.32;;;1.70;;
59074;SDS011;44860;53.020;6.738;2022-09-09T14:01:29;5.53;;;1.60;;
59074;SDS011;44860;53.020;6.738;2022-09-09T14:03:56;4.88;;;1.40;;
59074;SDS011;44860;53.020;6.738;2022-09-09T14:06:22;4.07;;;1.27;;
59074;SDS011;44860;53.020;6.738;2022-09-09T14:08:51;5.90;;;1.40;;
59074;SDS011;44860;53.020;6.738;2022-09-09T14:11:17;5.47;;;1.48;;
59074;SDS011;44860;53.020;6.738;2022-09-09T14:13:43;7.70;;;1.60;;
59074;SDS011;44860;53.020;6.738;2022-09-09T14:16:09;7.15;;;1.70;;
59074;SDS011;44860;53.020;6.738;2022-09-09T14:18:35;4.32;;;1.45;;
59074;SDS011;44860;53.020;6.738;2022-09-09T14:21:02;8.05;;;1.67;;
59074;SDS011;44860;53.020;6.738;2022-09-09T14:23:28;5.10;;;1.50;;
59074;SDS011;44860;53.020;6.738;2022-09-09T14:25:54;5.43;;;1.42;;
59074;SDS011;44860;53.020;6.738;2022-09-09T14:28:20;5.47;;;1.20;;
59074;SDS011;44860;53.020;6.738;2022-09-09T14:30:46;3.10;;;1.23;;
59074;SDS011;44860;53.020;6.738;2022-09-09T14:33:12;4.55;;;1.33;;
59074;SDS011;44860;53.020;6.738;2022-09-09T14:35:40;5.53;;;1.27;;
59074;SDS011;44860;53.020;6.738;2022-09-09T14:38:07;3.75;;;1.10;;
59074;SDS011;44860;53.020;6.738;2022-09-09T14:40:34;4.85;;;0.85;;
59074;SDS011;44860;53.020;6.738;2022-09-09T14:43:02;5.40;;;1.35;;
59074;SDS011;44860;53.020;6.738;2022-09-09T14:45:28;4.20;;;1.13;;
59074;SDS011;44860;53.020;6.738;2022-09-09T14:47:53;4.72;;;1.35;;
59074;SDS011;44860;53.020;6.738;2022-09-09T14:50:20;3.00;;;1.00;;
59074;SDS011;44860;53.020;6.738;2022-09-09T14:52:47;3.38;;;1.30;;
59074;SDS011;44860;53.020;6.738;2022-09-09T14:55:13;2.60;;;0.90;;
59074;SDS011;44860;53.020;6.738;2022-09-09T14:57:40;2.00;;;0.93;;
59074;SDS011;44860;53.020;6.738;2022-09-09T15:00:07;3.17;;;0.70;;
59074;SDS011;44860;53.020;6.738;2022-09-09T15:02:33;3.05;;;0.90;;
59074;SDS011;44860;53.020;6.738;2022-09-09T15:04:59;3.50;;;0.90;;
59074;SDS011;44860;53.020;6.738;2022-09-09T15:07:26;2.03;;;0.75;;
59074;SDS011;44860;53.020;6.738;2022-09-09T15:09:53;3.53;;;1.00;;
59074;SDS011;44860;53.020;6.738;2022-09-09T15:12:19;1.20;;;0.70;;
59074;SDS011;44860;53.020;6.738;2022-09-09T15:14:45;2.50;;;0.70;;
59074;SDS011;44860;53.020;6.738;2022-09-09T15:17:12;2.70;;;0.90;;
59074;SDS011;44860;53.020;6.738;2022-09-09T15:19:38;3.05;;;1.00;;
59074;SDS011;44860;53.020;6.738;2022-09-09T15:22:04;1.90;;;0.80;;
59074;SDS011;44860;53.020;6.738;2022-09-09T15:24:33;2.72;;;0.90;;
59074;SDS011;44860;53.020;6.738;2022-09-09T15:27:00;3.83;;;1.17;;
59074;SDS011;44860;53.020;6.738;2022-09-09T15:29:26;3.80;;;1.17;;
59074;SDS011;44860;53.020;6.738;2022-09-09T15:31:55;4.90;;;1.20;;
59074;SDS011;44860;53.020;6.738;2022-09-09T15:34:21;2.63;;;1.00;;
59074;SDS011;44860;53.020;6.738;2022-09-09T15:36:47;4.55;;;1.02;;
59074;SDS011;44860;53.020;6.738;2022-09-09T15:39:16;4.30;;;1.30;;
59074;SDS011;44860;53.020;6.738;2022-09-09T15:41:46;3.15;;;1.30;;
59074;SDS011;44860;53.020;6.738;2022-09-09T15:44:13;4.28;;;1.33;;
59074;SDS011;44860;53.020;6.738;2022-09-09T15:49:09;3.63;;;1.50;;
59074;SDS011;44860;53.020;6.738;2022-09-09T15:51:38;3.47;;;1.05;;
59074;SDS011;44860;53.020;6.738;2022-09-09T15:54:07;3.25;;;1.40;;
59074;SDS011;44860;53.020;6.738;2022-09-09T15:56:34;2.85;;;1.20;;
59074;SDS011;44860;53.020;6.738;2022-09-09T15:59:00;2.78;;;1.10;;
59074;SDS011;44860;53.020;6.738;2022-09-09T16:01:28;5.95;;;1.38;;
59074;SDS011;44860;53.020;6.738;2022-09-09T16:03:56;6.65;;;1.40;;
59074;SDS011;44860;53.020;6.738;2022-09-09T16:06:23;3.70;;;1.30;;
59074;SDS011;44860;53.020;6.738;2022-09-09T16:08:50;3.28;;;1.35;;
59074;SDS011;44860;53.020;6.738;2022-09-09T16:11:19;2.60;;;1.30;;
59074;SDS011;44860;53.020;6.738;2022-09-09T16:13:47;6.05;;;1.83;;
59074;SDS011;44860;53.020;6.738;2022-09-09T16:16:14;3.88;;;1.60;;
59074;SDS011;44860;53.020;6.738;2022-09-09T16:18:45;2.90;;;1.65;;
59074;SDS011;44860;53.020;6.738;2022-09-09T16:21:15;3.85;;;1.30;;
59074;SDS011;44860;53.020;6.738;2022-09-09T16:23:43;4.45;;;1.60;;
59074;SDS011;44860;53.020;6.738;2022-09-09T16:26:13;4.55;;;1.50;;
59074;SDS011;44860;53.020;6.738;2022-09-09T16:28:40;4.65;;;1.50;;
59074;SDS011;44860;53.020;6.738;2022-09-09T16:31:06;2.85;;;1.70;;
59074;SDS011;44860;53.020;6.738;2022-09-09T16:33:35;4.10;;;1.45;;
59074;SDS011;44860;53.020;6.738;2022-09-09T16:36:07;4.13;;;1.30;;
59074;SDS011;44860;53.020;6.738;2022-09-09T16:38:59;4.15;;;1.42;;
59074;SDS011;44860;53.020;6.738;2022-09-09T16:41:27;3.58;;;1.77;;
59074;SDS011;44860;53.020;6.738;2022-09-09T16:43:54;3.60;;;1.80;;
59074;SDS011;44860;53.020;6.738;2022-09-09T16:46:22;5.38;;;1.50;;
59074;SDS011;44860;53.020;6.738;2022-09-09T16:48:49;4.60;;;1.60;;
59074;SDS011;44860;53.020;6.738;2022-09-09T16:51:26;4.15;;;1.58;;
59074;SDS011;44860;53.020;6.738;2022-09-09T16:53:53;7.63;;;1.77;;
59074;SDS011;44860;53.020;6.738;2022-09-09T16:56:20;5.00;;;1.70;;
59074;SDS011;44860;53.020;6.738;2022-09-09T16:58:54;3.65;;;1.77;;
59074;SDS011;44860;53.020;6.738;2022-09-09T17:01:31;4.65;;;1.70;;
59074;SDS011;44860;53.020;6.738;2022-09-09T17:04:00;4.88;;;1.63;;
59074;SDS011;44860;53.020;6.738;2022-09-09T17:06:28;3.30;;;1.60;;
59074;SDS011;44860;53.020;6.738;2022-09-09T17:08:59;4.00;;;1.50;;
59074;SDS011;44860;53.020;6.738;2022-09-09T17:11:26;4.28;;;1.65;;
59074;SDS011;44860;53.020;6.738;2022-09-09T17:13:53;5.88;;;1.73;;